Time;durP1;ratioP1;P1;durP2;ratioP2;P2;SDS_P1;SDS_P2;PMS_P1;PMS_P2;Temp;Humidity;BMP_temperature;BMP_pressure;BME280_temperature;BME280_humidity;BME280_pressure;Samples;Min_cycle;Max_cycle;Signal;HPM_P1;HPM_P2
2022/03/11 00:00:37;;;;;;;;;;;22.40;65.50;;;;;;5162604;22;19914;-62
2022/03/11 00:02:59;;;;;;;;;;;22.50;65.50;;;;;;5162592;22;19914;-63
2022/03/11 00:05:21;;;;;;;;;;;22.50;65.30;;;;;;5164119;22;19903;-62
2022/03/11 00:07:42;;;;;;;;;;;22.50;65.10;;;;;;5163000;22;19971;-63
2022/03/11 00:10:04;;;;;;;;;;;22.50;65.00;;;;;;5158279;22;19911;-64
2022/03/11 00:12:26;;;;;;;;;;;22.50;65.30;;;;;;5161390;22;19985;-69
2022/03/11 00:14:48;;;;;;;;;;;22.50;66.10;;;;;;5164224;22;19907;-68
2022/03/11 00:17:10;;;;;;;;;;;22.60;66.60;;;;;;5160112;22;20635;-68
2022/03/11 00:19:32;;;;;;;;;;;22.70;66.80;;;;;;5161985;22;20631;-64
2022/03/11 00:21:55;;;;;;;;;;;22.70;66.80;;;;;;5132188;22;20080;-62
2022/03/11 00:24:17;;;;;;;;;;;22.80;66.90;;;;;;5162083;22;19993;-62
2022/03/11 00:26:39;;;;;;;;;;;22.80;67.80;;;;;;5156877;22;19907;-62
2022/03/11 00:29:01;;;;;;;;;;;22.90;67.50;;;;;;5130067;22;20787;-66
2022/03/11 00:31:23;;;;;;;;;;;23.00;67.10;;;;;;5165164;22;19931;-67
2022/03/11 00:33:45;;;;;;;;;;;23.00;67.00;;;;;;5163847;22;19914;-67
2022/03/11 00:36:07;;;;;;;;;;;23.00;67.00;;;;;;5160615;22;19904;-65
2022/03/11 00:38:28;;;;;;;;;;;23.10;67.00;;;;;;5169069;22;19914;-64
2022/03/11 00:40:56;;;;;;;;;;;23.10;67.00;;;;;;5165075;22;19907;-70
2022/03/11 00:43:18;;;;;;;;;;;23.20;67.00;;;;;;5161949;22;19907;-62
2022/03/11 00:45:40;;;;;;;;;;;23.20;66.90;;;;;;5164102;22;20475;-67
2022/03/11 00:48:02;;;;;;;;;;;23.30;67.00;;;;;;5162643;22;19918;-64
2022/03/11 00:50:24;;;;;;;;;;;23.30;66.90;;;;;;5161183;22;19989;-64
2022/03/11 00:52:46;;;;;;;;;;;23.40;67.00;;;;;;5160894;22;19907;-65
2022/03/11 00:55:08;;;;;;;;;;;23.40;67.00;;;;;;5164697;22;19911;-66
2022/03/11 00:57:30;;;;;;;;;;;23.50;66.90;;;;;;5164304;22;19915;-63
2022/03/11 00:59:52;;;;;;;;;;;23.50;66.90;;;;;;5160613;22;20640;-63
2022/03/11 01:02:14;;;;;;;;;;;23.60;66.90;;;;;;5158059;22;19903;-63
2022/03/11 01:04:36;;;;;;;;;;;23.60;66.70;;;;;;5165440;22;20238;-62
2022/03/11 01:06:58;;;;;;;;;;;23.60;66.70;;;;;;5162437;22;19907;-65
2022/03/11 01:09:20;;;;;;;;;;;23.60;66.60;;;;;;5160576;22;20424;-65
2022/03/11 01:11:41;;;;;;;;;;;23.70;66.50;;;;;;5161548;22;19903;-63
2022/03/11 01:14:04;;;;;;;;;;;23.70;66.40;;;;;;5166321;22;19926;-63
2022/03/11 01:16:25;;;;;;;;;;;23.80;66.30;;;;;;5160940;22;20108;-62
2022/03/11 01:18:47;;;;;;;;;;;23.80;65.90;;;;;;5168087;22;20007;-63
2022/03/11 01:21:11;;;;;;;;;;;23.80;65.60;;;;;;5166506;22;19910;-63
2022/03/11 01:23:34;;;;;;;;;;;23.80;65.60;;;;;;5129079;22;19908;-62
2022/03/11 01:25:56;;;;;;;;;;;23.80;65.50;;;;;;5163195;22;20607;-62
2022/03/11 01:28:17;;;;;;;;;;;23.70;65.40;;;;;;5166228;22;20117;-60
2022/03/11 01:30:40;;;;;;;;;;;23.70;65.50;;;;;;5170698;22;20651;-61
2022/03/11 01:33:02;;;;;;;;;;;23.80;65.50;;;;;;5168599;22;19981;-62
2022/03/11 01:35:24;;;;;;;;;;;23.80;65.40;;;;;;5170028;22;20404;-61
2022/03/11 01:37:46;;;;;;;;;;;23.80;65.30;;;;;;5175205;22;19906;-61
2022/03/11 01:40:08;;;;;;;;;;;23.80;65.30;;;;;;5159631;22;19935;-62
2022/03/11 01:42:34;;;;;;;;;;;23.80;65.20;;;;;;5133111;22;19908;-61
2022/03/11 01:44:56;;;;;;;;;;;23.80;65.20;;;;;;5158592;22;19903;-62
2022/03/11 01:47:23;;;;;;;;;;;23.80;65.20;;;;;;5159775;22;19918;-62
2022/03/11 01:49:45;;;;;;;;;;;23.80;65.20;;;;;;5152564;22;19951;-62
2022/03/11 01:52:07;;;;;;;;;;;23.70;65.10;;;;;;5150280;22;19903;-62
2022/03/11 01:54:29;;;;;;;;;;;23.80;65.20;;;;;;5144412;22;20688;-62
2022/03/11 01:56:51;;;;;;;;;;;23.80;65.10;;;;;;5146737;22;20026;-62
2022/03/11 01:59:14;;;;;;;;;;;23.80;65.10;;;;;;5155676;22;19934;-63
2022/03/11 02:01:35;;;;;;;;;;;23.80;65.00;;;;;;5145779;22;19910;-61
2022/03/11 02:03:57;;;;;;;;;;;23.80;65.00;;;;;;5116511;22;19986;-61
2022/03/11 02:06:20;;;;;;;;;;;23.80;65.00;;;;;;5145970;22;19907;-61
2022/03/11 02:08:42;;;;;;;;;;;23.80;64.90;;;;;;5150903;22;19907;-61
2022/03/11 02:11:04;;;;;;;;;;;23.80;64.80;;;;;;5145590;22;20002;-61
2022/03/11 02:13:26;;;;;;;;;;;23.90;64.90;;;;;;5117705;22;19908;-61
2022/03/11 02:15:48;;;;;;;;;;;23.90;64.80;;;;;;5154383;22;19907;-60
2022/03/11 02:18:10;;;;;;;;;;;23.90;64.80;;;;;;5114533;22;19920;-62
2022/03/11 02:20:32;;;;;;;;;;;23.90;64.80;;;;;;5144843;22;19907;-64
2022/03/11 02:22:55;;;;;;;;;;;23.90;64.70;;;;;;5150574;22;20070;-63
2022/03/11 02:25:17;;;;;;;;;;;23.90;64.80;;;;;;5150647;22;20026;-63
2022/03/11 02:27:42;;;;;;;;;;;23.90;64.80;;;;;;5145733;22;19929;-63
2022/03/11 02:30:12;;;;;;;;;;;23.90;64.80;;;;;;5143413;22;19922;-62
2022/03/11 02:32:34;;;;;;;;;;;23.90;64.80;;;;;;5145231;22;19906;-62
2022/03/11 02:34:56;;;;;;;;;;;23.90;64.80;;;;;;5147041;22;20294;-62
2022/03/11 02:37:18;;;;;;;;;;;23.90;64.80;;;;;;5122741;22;19955;-62
2022/03/11 02:39:39;;;;;;;;;;;23.90;64.80;;;;;;5146155;22;19945;-62
2022/03/11 02:42:03;;;;;;;;;;;24.00;64.80;;;;;;5145006;22;20707;-62
2022/03/11 02:44:25;;;;;;;;;;;24.00;64.80;;;;;;5152699;22;19907;-60
2022/03/11 02:46:47;;;;;;;;;;;24.00;64.80;;;;;;5147158;22;20313;-64
2022/03/11 02:49:09;;;;;;;;;;;24.00;64.70;;;;;;5144434;22;19907;-63
2022/03/11 02:51:30;;;;;;;;;;;24.00;64.70;;;;;;5146267;22;19930;-64
2022/03/11 02:53:53;;;;;;;;;;;24.00;64.80;;;;;;5142093;22;19903;-67
2022/03/11 02:56:15;;;;;;;;;;;24.00;65.10;;;;;;5141010;22;19907;-66
2022/03/11 02:58:37;;;;;;;;;;;24.10;65.20;;;;;;5137742;22;21064;-66
2022/03/11 03:01:04;;;;;;;;;;;24.10;65.40;;;;;;5144698;22;19919;-66
2022/03/11 03:03:25;;;;;;;;;;;24.10;65.70;;;;;;5135736;22;20203;-65
2022/03/11 03:05:47;;;;;;;;;;;24.10;65.80;;;;;;5132876;22;20272;-71
2022/03/11 03:08:09;;;;;;;;;;;24.10;65.80;;;;;;5142328;22;19922;-63
2022/03/11 03:10:31;;;;;;;;;;;24.20;66.00;;;;;;5135919;22;20401;-67
2022/03/11 03:12:53;;;;;;;;;;;24.20;66.00;;;;;;5137318;22;19907;-67
2022/03/11 03:15:15;;;;;;;;;;;24.20;66.10;;;;;;5142902;22;19911;-64
2022/03/11 03:17:37;;;;;;;;;;;24.30;65.90;;;;;;5140884;22;20442;-63
2022/03/11 03:19:59;;;;;;;;;;;24.30;65.90;;;;;;5105989;22;20034;-64
2022/03/11 03:22:21;;;;;;;;;;;24.40;65.90;;;;;;5138220;22;20763;-63
2022/03/11 03:24:43;;;;;;;;;;;24.40;65.90;;;;;;5145793;22;19954;-62
2022/03/11 03:27:05;;;;;;;;;;;24.40;65.80;;;;;;5135639;22;20330;-62
2022/03/11 03:29:27;;;;;;;;;;;24.40;65.80;;;;;;5142097;22;19969;-60
2022/03/11 03:31:49;;;;;;;;;;;24.50;65.80;;;;;;5140757;22;19997;-60
2022/03/11 03:34:10;;;;;;;;;;;24.50;65.90;;;;;;5148116;22;19911;-60
2022/03/11 03:36:32;;;;;;;;;;;24.50;65.90;;;;;;5144349;22;19923;-60
2022/03/11 03:38:54;;;;;;;;;;;24.50;65.80;;;;;;5146895;22;19907;-60
2022/03/11 03:41:16;;;;;;;;;;;24.50;65.80;;;;;;5154123;22;20036;-62
2022/03/11 03:43:38;;;;;;;;;;;24.50;65.70;;;;;;5149958;22;20359;-61
2022/03/11 03:46:00;;;;;;;;;;;24.60;65.80;;;;;;5149099;22;19933;-62
2022/03/11 03:48:22;;;;;;;;;;;24.60;65.80;;;;;;5152802;22;20301;-63
2022/03/11 03:50:44;;;;;;;;;;;24.60;65.80;;;;;;5149349;22;19914;-64
2022/03/11 03:53:09;;;;;;;;;;;24.60;65.80;;;;;;5148848;22;20250;-63
2022/03/11 03:55:31;;;;;;;;;;;24.60;65.80;;;;;;5120244;22;19993;-64
2022/03/11 03:57:53;;;;;;;;;;;24.60;65.80;;;;;;5147949;22;20008;-61
2022/03/11 04:00:15;;;;;;;;;;;24.70;65.80;;;;;;5144640;22;19980;-61
2022/03/11 04:02:37;;;;;;;;;;;24.70;65.80;;;;;;5150615;22;20592;-66
2022/03/11 04:04:59;;;;;;;;;;;24.70;66.10;;;;;;5148182;22;19907;-66
2022/03/11 04:07:21;;;;;;;;;;;24.80;66.20;;;;;;5141138;22;19930;-70
2022/03/11 04:09:43;;;;;;;;;;;24.80;66.00;;;;;;5140823;22;20599;-70
2022/03/11 04:12:05;;;;;;;;;;;24.90;66.70;;;;;;5141191;22;19907;-71
2022/03/11 04:14:27;;;;;;;;;;;25.00;66.00;;;;;;5149512;22;19934;-69
2022/03/11 04:16:49;;;;;;;;;;;25.10;66.00;;;;;;5145556;22;19915;-66
2022/03/11 04:19:11;;;;;;;;;;;25.10;66.10;;;;;;5151026;22;19903;-65
2022/03/11 04:21:34;;;;;;;;;;;25.20;66.00;;;;;;5147079;22;20671;-72
2022/03/11 04:23:56;;;;;;;;;;;25.20;65.80;;;;;;5147432;22;19949;-69
2022/03/11 04:26:18;;;;;;;;;;;25.30;65.70;;;;;;5140973;22;20002;-66
2022/03/11 04:28:40;;;;;;;;;;;25.40;65.70;;;;;;5154783;22;19977;-66
2022/03/11 04:31:07;;;;;;;;;;;25.40;65.50;;;;;;5147875;22;19921;-68
2022/03/11 04:33:29;;;;;;;;;;;25.50;65.50;;;;;;5151080;22;20092;-67
2022/03/11 04:35:51;;;;;;;;;;;25.60;65.40;;;;;;5155540;22;19906;-73
2022/03/11 04:38:12;;;;;;;;;;;25.70;65.30;;;;;;5150465;22;19943;-66
2022/03/11 04:40:34;;;;;;;;;;;25.70;65.10;;;;;;5150245;22;20008;-67
2022/03/11 04:42:56;;;;;;;;;;;25.80;65.10;;;;;;5157635;22;20629;-75
2022/03/11 04:45:18;;;;;;;;;;;25.90;65.10;;;;;;5155906;22;20602;-67
2022/03/11 04:47:40;;;;;;;;;;;25.90;64.90;;;;;;5154388;22;20442;-67
2022/03/11 04:50:02;;;;;;;;;;;26.00;64.80;;;;;;5145828;22;19929;-66
2022/03/11 04:52:24;;;;;;;;;;;26.10;64.70;;;;;;5150693;22;19907;-69
2022/03/11 04:54:46;;;;;;;;;;;26.10;64.50;;;;;;5152536;22;19915;-74
2022/03/11 04:57:08;;;;;;;;;;;26.20;64.50;;;;;;5149095;22;19976;-70
2022/03/11 04:59:29;;;;;;;;;;;26.30;64.40;;;;;;5157240;22;19911;-70
2022/03/11 05:01:51;;;;;;;;;;;;;;;;;;5144987;22;19933;-74
2022/03/11 05:04:14;;;;;;;;;;;26.40;64.30;;;;;;5156126;22;20568;-68
2022/03/11 05:06:35;;;;;;;;;;;26.50;63.50;;;;;;5149495;22;20328;-69
2022/03/11 05:08:57;;;;;;;;;;;26.60;63.80;;;;;;5160907;22;20274;-69
2022/03/11 05:11:20;;;;;;;;;;;26.70;63.70;;;;;;5155185;22;19915;-65
2022/03/11 05:13:42;;;;;;;;;;;26.80;63.70;;;;;;5143100;22;20006;-63
2022/03/11 05:16:04;;;;;;;;;;;26.80;63.50;;;;;;5157224;22;19954;-64
2022/03/11 05:18:25;;;;;;;;;;;26.90;63.30;;;;;;5152956;22;19972;-64
2022/03/11 05:20:47;;;;;;;;;;;27.00;63.30;;;;;;5156790;22;19910;-65
2022/03/11 05:23:09;;;;;;;;;;;27.00;63.00;;;;;;5156041;22;19910;-62
2022/03/11 05:25:31;;;;;;;;;;;27.10;62.90;;;;;;5160943;22;19907;-65
2022/03/11 05:27:53;;;;;;;;;;;27.20;62.80;;;;;;5162380;22;20870;-66
2022/03/11 05:30:15;;;;;;;;;;;27.30;62.80;;;;;;5164199;22;19993;-62
2022/03/11 05:32:41;;;;;;;;;;;27.30;62.50;;;;;;5169186;22;19946;-69
2022/03/11 05:35:03;;;;;;;;;;;27.40;60.50;;;;;;5163061;22;20546;-67
2022/03/11 05:37:25;;;;;;;;;;;27.40;60.30;;;;;;5154473;22;20158;-62
2022/03/11 05:39:47;;;;;;;;;;;27.50;60.40;;;;;;5165001;22;19970;-63
2022/03/11 05:42:09;;;;;;;;;;;27.50;60.50;;;;;;5167665;22;19929;-63
2022/03/11 05:44:31;;;;;;;;;;;27.60;60.70;;;;;;5164907;22;19914;-62
2022/03/11 05:46:53;;;;;;;;;;;27.60;60.70;;;;;;5169777;22;20431;-62
2022/03/11 05:49:15;;;;;;;;;;;27.70;60.70;;;;;;5159964;22;20204;-62
2022/03/11 05:51:37;;;;;;;;;;;;;;;;;;5155249;22;20077;-62
2022/03/11 05:54:04;;;;;;;;;;;;;;;;;;5156066;22;20428;-64
2022/03/11 05:56:26;;;;;;;;;;;;;;;;;;5155917;22;19914;-64
2022/03/11 05:58:50;;;;;;;;;;;;;;;;;;5143425;22;19957;-62
2022/03/11 06:01:15;;;;;;;;;;;;;;;;;;5144800;22;20591;-64
2022/03/11 06:03:37;;;;;;;;;;;;;;;;;;5145678;22;20580;-64
2022/03/11 06:05:59;;;;;;;;;;;;;;;;;;5137746;22;20595;-64
2022/03/11 06:08:21;;;;;;;;;;;;;;;;;;5137113;22;20733;-63
2022/03/11 06:10:43;;;;;;;;;;;;;;;;;;5136690;22;20740;-64
2022/03/11 06:13:05;;;;;;;;;;;27.80;61.20;;;;;;5137202;22;20377;-61
2022/03/11 06:15:26;;;;;;;;;;;28.30;59.80;;;;;;5138965;22;21039;-62
2022/03/11 06:17:48;;;;;;;;;;;28.40;60.10;;;;;;5143121;22;19919;-61
2022/03/11 06:20:12;;;;;;;;;;;28.40;59.90;;;;;;5143362;22;19910;-60
2022/03/11 06:22:36;;;;;;;;;;;28.50;59.80;;;;;;5130149;22;19907;-60
2022/03/11 06:25:00;;;;;;;;;;;28.60;59.70;;;;;;5130000;22;20751;-60
2022/03/11 06:27:25;;;;;;;;;;;28.60;59.60;;;;;;5136847;22;20387;-60
2022/03/11 06:29:47;;;;;;;;;;;28.50;59.60;;;;;;5133348;22;19985;-63
2022/03/11 06:32:09;;;;;;;;;;;28.50;59.60;;;;;;5149792;22;19993;-63
2022/03/11 06:34:31;;;;;;;;;;;28.60;59.50;;;;;;5145357;22;20414;-60
2022/03/11 06:36:53;;;;;;;;;;;28.60;59.70;;;;;;5114570;22;19922;-61
2022/03/11 06:39:15;;;;;;;;;;;28.70;59.40;;;;;;5150674;22;20382;-65
2022/03/11 06:41:37;;;;;;;;;;;28.70;59.40;;;;;;5148970;22;19985;-66
2022/03/11 06:43:58;;;;;;;;;;;28.80;60.30;;;;;;5143192;22;19990;-65
2022/03/11 06:46:20;;;;;;;;;;;28.80;59.80;;;;;;5139302;22;20016;-66
2022/03/11 06:48:42;;;;;;;;;;;28.80;59.80;;;;;;5144486;22;19907;-63
2022/03/11 06:51:05;;;;;;;;;;;28.90;59.90;;;;;;5142372;22;20253;-64
2022/03/11 06:53:29;;;;;;;;;;;28.90;59.70;;;;;;5133638;22;19919;-62
2022/03/11 06:55:53;;;;;;;;;;;28.90;59.60;;;;;;5145955;22;19907;-60
2022/03/11 06:58:15;;;;;;;;;;;28.90;59.50;;;;;;5136266;22;19998;-62
2022/03/11 07:00:37;;;;;;;;;;;29.00;59.60;;;;;;5144520;22;19907;-62
2022/03/11 07:02:59;;;;;;;;;;;29.00;59.60;;;;;;5151081;22;19941;-62
2022/03/11 07:05:20;;;;;;;;;;;29.00;59.60;;;;;;5148179;22;20020;-61
2022/03/11 07:07:42;;;;;;;;;;;29.00;59.60;;;;;;5143563;22;20018;-61
2022/03/11 07:10:05;;;;;;;;;;;29.00;59.60;;;;;;5143926;22;20148;-61
2022/03/11 07:12:29;;;;;;;;;;;29.00;59.60;;;;;;5148073;22;19914;-64
2022/03/11 07:14:51;;;;;;;;;;;29.00;59.60;;;;;;5137672;22;19925;-61
2022/03/11 07:17:12;;;;;;;;;;;29.00;59.60;;;;;;5139382;22;19911;-61
2022/03/11 07:19:35;;;;;;;;;;;29.00;59.50;;;;;;5150040;22;19907;-60
2022/03/11 07:21:57;;;;;;;;;;;29.00;59.60;;;;;;5138028;22;19988;-64
2022/03/11 07:24:19;;;;;;;;;;;29.00;59.60;;;;;;5133529;22;19942;-62
2022/03/11 07:26:41;;;;;;;;;;;29.00;59.70;;;;;;5139636;22;19953;-62
2022/03/11 07:29:03;;;;;;;;;;;28.90;59.70;;;;;;5137151;22;19907;-65
2022/03/11 07:31:25;;;;;;;;;;;28.90;59.80;;;;;;5134562;22;20082;-62
2022/03/11 07:33:47;;;;;;;;;;;28.90;59.90;;;;;;5142785;22;19910;-62
2022/03/11 07:36:09;;;;;;;;;;;28.90;60.00;;;;;;5146076;22;19907;-63
2022/03/11 07:38:33;;;;;;;;;;;28.80;60.10;;;;;;5104794;22;20246;-62
2022/03/11 07:40:55;;;;;;;;;;;28.80;60.20;;;;;;5138715;22;19903;-64
2022/03/11 07:43:17;;;;;;;;;;;28.70;60.20;;;;;;5150536;22;19907;-64
2022/03/11 07:45:39;;;;;;;;;;;28.70;60.20;;;;;;5145094;22;19911;-63
2022/03/11 07:48:01;;;;;;;;;;;28.70;60.20;;;;;;5144930;22;19914;-60
2022/03/11 07:50:27;;;;;;;;;;;28.60;60.30;;;;;;5148685;22;19907;-64
2022/03/11 07:52:49;;;;;;;;;;;28.50;60.30;;;;;;5142764;22;19907;-65
2022/03/11 07:55:10;;;;;;;;;;;28.50;60.40;;;;;;5143743;22;20350;-63
2022/03/11 07:57:32;;;;;;;;;;;28.50;61.10;;;;;;5149368;22;20057;-64
2022/03/11 07:59:54;;;;;;;;;;;28.50;60.60;;;;;;5148326;22;19907;-63
2022/03/11 08:02:16;;;;;;;;;;;28.40;60.60;;;;;;5146913;22;19976;-64
2022/03/11 08:04:38;;;;;;;;;;;28.40;60.80;;;;;;5149189;22;20002;-63
2022/03/11 08:07:06;;;;;;;;;;;28.40;60.80;;;;;;5149098;22;19941;-67
2022/03/11 08:09:28;;;;;;;;;;;28.30;60.90;;;;;;5133423;22;19907;-66
2022/03/11 08:11:50;;;;;;;;;;;28.30;61.00;;;;;;5146951;22;20006;-66
2022/03/11 08:14:13;;;;;;;;;;;28.30;61.10;;;;;;5138934;22;19952;-66
2022/03/11 08:16:35;;;;;;;;;;;28.20;61.20;;;;;;5148499;22;19918;-64
2022/03/11 08:18:58;;;;;;;;;;;28.20;61.20;;;;;;5147896;22;20932;-64
2022/03/11 08:21:20;;;;;;;;;;;28.20;61.30;;;;;;5152978;22;19907;-64
2022/03/11 08:23:42;;;;;;;;;;;28.20;61.40;;;;;;5148126;22;19913;-63
2022/03/11 08:26:04;;;;;;;;;;;28.10;61.40;;;;;;5148671;22;20549;-64
2022/03/11 08:28:26;;;;;;;;;;;28.10;61.50;;;;;;5157562;22;19960;-64
2022/03/11 08:30:49;;;;;;;;;;;28.00;62.10;;;;;;5153894;22;19957;-64
2022/03/11 08:33:11;;;;;;;;;;;28.10;61.60;;;;;;5153600;22;20505;-65
2022/03/11 08:35:34;;;;;;;;;;;28.00;61.60;;;;;;5148601;22;19913;-68
2022/03/11 08:37:55;;;;;;;;;;;28.00;61.60;;;;;;5157137;22;19975;-63
2022/03/11 08:40:26;;;;;;;;;;;28.00;62.20;;;;;;5151251;22;19903;-63
2022/03/11 08:42:48;;;;;;;;;;;27.90;61.40;;;;;;5159891;22;19907;-66
2022/03/11 08:45:10;;;;;;;;;;;27.90;61.30;;;;;;5154406;22;20581;-65
2022/03/11 08:47:32;;;;;;;;;;;27.90;61.40;;;;;;5140719;22;19911;-66
2022/03/11 08:49:54;;;;;;;;;;;27.90;61.40;;;;;;5156720;22;20596;-63
2022/03/11 08:52:16;;;;;;;;;;;27.80;61.40;;;;;;5156574;22;20474;-63
2022/03/11 08:54:38;;;;;;;;;;;27.80;61.60;;;;;;5154589;22;19907;-62
2022/03/11 08:57:00;;;;;;;;;;;27.80;61.60;;;;;;5153239;22;20006;-62
2022/03/11 08:59:22;;;;;;;;;;;27.80;61.70;;;;;;5159451;22;19907;-61
2022/03/11 09:01:44;;;;;;;;;;;27.70;61.80;;;;;;5145645;22;19934;-66
2022/03/11 09:04:06;;;;;;;;;;;27.70;61.80;;;;;;5152140;22;20280;-63
2022/03/11 09:06:28;;;;;;;;;;;27.70;61.90;;;;;;5152985;22;19907;-64
2022/03/11 09:08:50;;;;;;;;;;;27.70;62.00;;;;;;5147004;22;20599;-66
2022/03/11 09:11:12;;;;;;;;;;;27.70;62.10;;;;;;5155739;22;19914;-63
2022/03/11 09:13:33;;;;;;;;;;;27.60;62.10;;;;;;5156467;22;19904;-63
2022/03/11 09:15:55;;;;;;;;;;;27.60;62.10;;;;;;5159563;22;19937;-65
2022/03/11 09:18:17;;;;;;;;;;;27.60;62.20;;;;;;5154646;22;20502;-62
2022/03/11 09:20:40;;;;;;;;;;;27.60;62.20;;;;;;5154068;22;20084;-63
2022/03/11 09:23:02;;;;;;;;;;;27.60;62.30;;;;;;5160822;22;19948;-63
2022/03/11 09:25:24;;;;;;;;;;;27.50;62.30;;;;;;5147093;22;19907;-64
2022/03/11 09:27:46;;;;;;;;;;;27.50;62.40;;;;;;5145040;22;19932;-65
2022/03/11 09:30:08;;;;;;;;;;;27.50;62.40;;;;;;5158565;22;20310;-66
2022/03/11 09:32:30;;;;;;;;;;;27.50;62.50;;;;;;5161032;22;20812;-64
2022/03/11 09:34:53;;;;;;;;;;;27.50;62.50;;;;;;5154188;22;20272;-69
2022/03/11 09:37:15;;;;;;;;;;;27.50;62.60;;;;;;5120789;22;21051;-68
2022/03/11 09:39:38;;;;;;;;;;;27.40;62.50;;;;;;5129366;22;19907;-65
2022/03/11 09:42:01;;;;;;;;;;;27.40;62.50;;;;;;5156349;22;19923;-65
2022/03/11 09:44:24;;;;;;;;;;;27.40;62.70;;;;;;5155573;22;19903;-68
2022/03/11 09:46:46;;;;;;;;;;;27.40;62.70;;;;;;5161186;22;19907;-66
2022/03/11 09:49:09;;;;;;;;;;;27.40;62.80;;;;;;5158315;22;19940;-65
2022/03/11 09:51:32;;;;;;;;;;;27.40;62.80;;;;;;5160699;22;19914;-67
2022/03/11 09:53:57;;;;;;;;;;;27.30;62.70;;;;;;5175116;22;19925;-66
2022/03/11 09:56:41;;;;;;;;;;;27.40;62.80;;;;;;5174310;22;19907;-69
2022/03/11 10:02:11;;;;;;;;;;;27.30;62.80;;;;;;5177286;22;19903;-66
2022/03/11 10:04:34;;;;;;;;;;;27.30;62.90;;;;;;5164755;22;19912;-66
2022/03/11 10:06:55;;;;;;;;;;;27.30;62.50;;;;;;5159435;22;20465;-66
2022/03/11 10:09:18;;;;;;;;;;;27.30;62.50;;;;;;5166864;22;19903;-67
2022/03/11 10:11:40;;;;;;;;;;;27.30;62.40;;;;;;5161149;22;19922;-70
2022/03/11 10:14:06;;;;;;;;;;;27.30;62.20;;;;;;5162319;22;19910;-69
2022/03/11 10:16:28;;;;;;;;;;;27.30;62.30;;;;;;5160892;22;19903;-67
2022/03/11 10:18:55;;;;;;;;;;;27.20;62.40;;;;;;5162033;22;19907;-67
2022/03/11 10:21:16;;;;;;;;;;;27.20;62.40;;;;;;5158123;22;20676;-68
2022/03/11 10:23:49;;;;;;;;;;;27.20;62.50;;;;;;5164682;22;19910;-66
2022/03/11 10:26:11;;;;;;;;;;;27.20;62.50;;;;;;5157648;22;19907;-70
2022/03/11 10:28:32;;;;;;;;;;;27.20;62.50;;;;;;5158497;22;19929;-66
2022/03/11 10:30:54;;;;;;;;;;;27.20;62.50;;;;;;5161558;22;20335;-68
2022/03/11 10:33:16;;;;;;;;;;;27.20;62.50;;;;;;5154300;22;20368;-68
2022/03/11 10:35:40;;;;;;;;;;;27.20;62.50;;;;;;5156774;22;19985;-69
2022/03/11 10:38:04;;;;;;;;;;;27.20;62.40;;;;;;5150481;22;20017;-70
2022/03/11 10:40:27;;;;;;;;;;;27.20;62.40;;;;;;5158721;22;19914;-71
2022/03/11 10:42:48;;;;;;;;;;;27.20;62.50;;;;;;5155509;22;19911;-69
2022/03/11 10:45:10;;;;;;;;;;;27.20;62.50;;;;;;5160942;22;19938;-65
2022/03/11 10:47:34;;;;;;;;;;;27.10;62.50;;;;;;5158326;22;19972;-68
2022/03/11 10:49:58;;;;;;;;;;;27.10;62.50;;;;;;5153543;22;19907;-63
2022/03/11 10:52:35;;;;;;;;;;;27.20;62.50;;;;;;5159098;22;19933;-65
2022/03/11 10:54:57;;;;;;;;;;;27.10;62.40;;;;;;5154885;22;20719;-66
2022/03/11 10:57:21;;;;;;;;;;;27.10;62.40;;;;;;5158080;22;19993;-67
2022/03/11 10:59:43;;;;;;;;;;;27.10;62.40;;;;;;5152722;22;19995;-69
2022/03/11 11:02:05;;;;;;;;;;;27.10;62.30;;;;;;5152955;22;20306;-65
2022/03/11 11:04:27;;;;;;;;;;;27.10;62.40;;;;;;5149030;22;20974;-66
2022/03/11 11:06:49;;;;;;;;;;;27.10;62.40;;;;;;5158380;22;19907;-67
2022/03/11 11:09:12;;;;;;;;;;;27.10;62.30;;;;;;5151514;22;20222;-64
2022/03/11 11:11:34;;;;;;;;;;;27.10;62.20;;;;;;5153657;22;19907;-64
2022/03/11 11:13:56;;;;;;;;;;;27.10;62.20;;;;;;5159704;22;19907;-64
2022/03/11 11:16:19;;;;;;;;;;;27.10;62.20;;;;;;5151215;22;20034;-66
2022/03/11 11:18:44;;;;;;;;;;;27.10;62.20;;;;;;5154469;22;19941;-69
2022/03/11 11:21:07;;;;;;;;;;;27.10;62.20;;;;;;5159253;22;19914;-65
2022/03/11 11:23:30;;;;;;;;;;;27.00;62.20;;;;;;5157637;22;19918;-63
2022/03/11 11:25:52;;;;;;;;;;;27.10;62.30;;;;;;5156142;22;20785;-68
2022/03/11 11:28:16;;;;;;;;;;;27.00;62.20;;;;;;5160854;22;19926;-67
2022/03/11 11:30:39;;;;;;;;;;;27.00;62.20;;;;;;5158127;22;19946;-65
2022/03/11 11:33:01;;;;;;;;;;;27.00;62.20;;;;;;5155887;22;20532;-67
2022/03/11 11:35:38;;;;;;;;;;;27.10;62.30;;;;;;5163188;22;20048;-65
2022/03/11 11:38:02;;;;;;;;;;;27.00;62.10;;;;;;5153972;22;20888;-63
2022/03/11 11:40:25;;;;;;;;;;;27.00;62.20;;;;;;5158177;22;20377;-62
2022/03/11 11:43:06;;;;;;;;;;;27.00;62.10;;;;;;5153461;22;19918;-62
2022/03/11 11:45:47;;;;;;;;;;;27.00;62.10;;;;;;5153444;22;19907;-62
2022/03/11 11:48:28;;;;;;;;;;;27.00;62.10;;;;;;5150972;22;19911;-61
2022/03/11 11:50:49;;;;;;;;;;;26.90;62.00;;;;;;5163546;22;20125;-63
2022/03/11 11:53:11;;;;;;;;;;;26.90;63.80;;;;;;5154537;22;19913;-61
2022/03/11 11:55:39;;;;;;;;;;;26.90;63.40;;;;;;5153964;22;20001;-61
2022/03/11 11:58:21;;;;;;;;;;;26.90;63.40;;;;;;5160795;22;20337;-62
2022/03/11 12:00:43;;;;;;;;;;;26.80;63.50;;;;;;5163007;22;19903;-65
2022/03/11 12:03:05;;;;;;;;;;;26.80;63.70;;;;;;5159775;22;19903;-65
2022/03/11 12:05:40;;;;;;;;;;;26.80;63.80;;;;;;5155483;22;19965;-65
2022/03/11 12:08:02;;;;;;;;;;;26.80;64.00;;;;;;5150268;22;19987;-65
2022/03/11 12:10:25;;;;;;;;;;;26.80;64.20;;;;;;5154656;22;19907;-64
2022/03/11 12:12:48;;;;;;;;;;;26.70;64.40;;;;;;5155651;22;19903;-64
2022/03/11 12:15:11;;;;;;;;;;;26.70;64.50;;;;;;5153346;22;19926;-60
2022/03/11 12:17:52;;;;;;;;;;;26.70;64.60;;;;;;5156883;22;19934;-63
2022/03/11 12:20:23;;;;;;;;;;;26.60;64.60;;;;;;5155227;22;20500;-62
2022/03/11 12:22:57;;;;;;;;;;;26.60;64.40;;;;;;5160474;22;21003;-62
2022/03/11 12:25:22;;;;;;;;;;;26.60;64.30;;;;;;5155425;22;19906;-64
2022/03/11 12:27:58;;;;;;;;;;;26.60;64.40;;;;;;5162848;22;19907;-67
2022/03/11 12:30:20;;;;;;;;;;;26.60;64.20;;;;;;5149839;22;19923;-64
2022/03/11 12:32:41;;;;;;;;;;;26.60;64.80;;;;;;5159777;22;19926;-65
2022/03/11 12:35:04;;;;;;;;;;;26.50;64.70;;;;;;5158780;22;19922;-69
2022/03/11 12:37:27;;;;;;;;;;;26.50;64.80;;;;;;5153575;22;19941;-67
2022/03/11 12:39:49;;;;;;;;;;;26.50;64.90;;;;;;5156523;22;20301;-69
2022/03/11 12:42:11;;;;;;;;;;;26.50;65.00;;;;;;5162125;22;20668;-68
2022/03/11 12:44:46;;;;;;;;;;;26.50;65.10;;;;;;5122975;22;19907;-67
2022/03/11 12:47:15;;;;;;;;;;;26.50;65.20;;;;;;5162639;22;19914;-63
2022/03/11 12:49:37;;;;;;;;;;;26.50;65.30;;;;;;5153764;22;19913;-62
2022/03/11 12:52:18;;;;;;;;;;;26.40;65.20;;;;;;5157239;22;20444;-65
2022/03/11 12:54:40;;;;;;;;;;;26.40;65.40;;;;;;5154436;22;20331;-64
2022/03/11 12:57:02;;;;;;;;;;;26.40;65.40;;;;;;5161431;22;19914;-66
2022/03/11 12:59:24;;;;;;;;;;;26.40;65.30;;;;;;5123379;22;19919;-64
2022/03/11 13:01:50;;;;;;;;;;;26.40;65.40;;;;;;5143641;22;19935;-61
2022/03/11 13:04:12;;;;;;;;;;;26.30;65.40;;;;;;5148913;22;20228;-64
2022/03/11 13:06:34;;;;;;;;;;;26.30;65.40;;;;;;5149609;22;19918;-63
2022/03/11 13:09:02;;;;;;;;;;;26.30;65.50;;;;;;5153639;22;20371;-63
2022/03/11 13:11:24;;;;;;;;;;;26.30;65.50;;;;;;5161433;22;19903;-63
2022/03/11 13:13:46;;;;;;;;;;;26.20;65.60;;;;;;5153310;22;19947;-62
2022/03/11 13:16:08;;;;;;;;;;;26.30;66.00;;;;;;5142516;22;19907;-66
2022/03/11 13:18:34;;;;;;;;;;;26.20;66.10;;;;;;5159467;22;19915;-61
2022/03/11 13:21:03;;;;;;;;;;;26.20;66.10;;;;;;5153630;22;19926;-62
2022/03/11 13:23:51;;;;;;;;;;;26.20;66.10;;;;;;5154562;22;19918;-61
2022/03/11 13:26:20;;;;;;;;;;;26.10;66.00;;;;;;5151322;22;20545;-62
2022/03/11 13:28:45;;;;;;;;;;;26.10;65.70;;;;;;5124791;22;19908;-60
2022/03/11 13:31:12;;;;;;;;;;;26.10;66.20;;;;;;5125458;22;19916;-61
2022/03/11 13:33:34;;;;;;;;;;;26.10;66.00;;;;;;5145028;22;20288;-61
2022/03/11 13:36:04;;;;;;;;;;;26.10;66.20;;;;;;5154624;22;20545;-63
2022/03/11 13:38:47;;;;;;;;;;;26.10;66.20;;;;;;5161384;22;19922;-63
2022/03/11 13:41:10;;;;;;;;;;;26.10;66.10;;;;;;5153638;22;19976;-64
2022/03/11 13:43:33;;;;;;;;;;;26.00;66.10;;;;;;5153800;22;19914;-66
2022/03/11 13:45:55;;;;;;;;;;;26.00;66.20;;;;;;5147787;22;19930;-65
2022/03/11 13:48:17;;;;;;;;;;;26.00;66.30;;;;;;5161960;22;19914;-65
2022/03/11 13:50:39;;;;;;;;;;;26.00;66.60;;;;;;5161774;22;19957;-65
2022/03/11 13:53:02;;;;;;;;;;;26.00;66.80;;;;;;5156541;22;20098;-67
2022/03/11 13:55:34;;;;;;;;;;;25.90;66.80;;;;;;5149382;22;20617;-66
2022/03/11 13:58:11;;;;;;;;;;;25.90;67.00;;;;;;5152470;22;19926;-66
2022/03/11 14:00:37;;;;;;;;;;;25.90;66.90;;;;;;5162658;22;19918;-64